Time;durP1;ratioP1;P1;durP2;ratioP2;P2;SDS_P1;SDS_P2;PMS_P1;PMS_P2;Temp;Humidity;BMP_temperature;BMP_pressure;BME280_temperature;BME280_humidity;BME280_pressure;Samples;Min_cycle;Max_cycle;Signal;HPM_P1;HPM_P2
2021/12/06 00:01:29;;;;;;;26.93;15.37;;;1.90;99.90;;;;;;5050057;28;20223;-41
2021/12/06 00:03:59;;;;;;;32.13;16.63;;;1.90;99.90;;;;;;5051640;28;21241;-41
2021/12/06 00:06:29;;;;;;;27.00;16.20;;;1.90;99.90;;;;;;5041654;28;20220;-41
2021/12/06 00:08:57;;;;;;;26.90;15.73;;;1.80;99.90;;;;;;5043084;28;20211;-41
2021/12/06 00:11:24;;;;;;;25.97;15.47;;;1.90;99.90;;;;;;5040686;28;20207;-41
2021/12/06 00:13:51;;;;;;;30.67;16.40;;;1.80;99.90;;;;;;5070598;28;20320;-41
2021/12/06 00:16:22;;;;;;;27.80;15.77;;;1.80;99.90;;;;;;5051284;28;20206;-41
2021/12/06 00:18:51;;;;;;;29.63;16.07;;;1.80;99.90;;;;;;5071218;28;20215;-41
2021/12/06 00:21:18;;;;;;;27.20;15.70;;;1.90;99.90;;;;;;5030055;28;20307;-41
2021/12/06 00:23:46;;;;;;;27.27;15.73;;;1.90;99.90;;;;;;5053221;28;20319;-41
2021/12/06 00:26:15;;;;;;;30.47;15.80;;;2.00;99.90;;;;;;5057748;28;20227;-41
2021/12/06 00:28:44;;;;;;;29.33;16.63;;;2.00;99.90;;;;;;5053031;28;20221;-41
2021/12/06 00:31:13;;;;;;;35.33;17.07;;;1.90;99.90;;;;;;5030662;28;20219;-41
2021/12/06 00:33:41;;;;;;;28.33;17.03;;;1.90;99.90;;;;;;5062812;28;20219;-41
2021/12/06 00:36:16;;;;;;;31.43;16.97;;;1.90;99.90;;;;;;5032157;28;20211;-40
2021/12/06 00:38:45;;;;;;;32.33;15.80;;;1.90;99.90;;;;;;5052180;28;20196;-41
2021/12/06 00:41:13;;;;;;;30.43;16.30;;;1.90;99.90;;;;;;5068610;28;20199;-41
2021/12/06 00:43:41;;;;;;;24.53;14.73;;;1.90;99.90;;;;;;5040396;28;21175;-41
2021/12/06 00:46:08;;;;;;;33.50;16.20;;;1.90;99.90;;;;;;5056330;28;21389;-41
2021/12/06 00:48:35;;;;;;;28.50;16.47;;;1.90;99.90;;;;;;5068400;28;20621;-41
2021/12/06 00:51:02;;;;;;;30.33;16.53;;;1.80;99.90;;;;;;5042700;28;20221;-41
2021/12/06 00:53:29;;;;;;;31.00;16.80;;;1.90;99.90;;;;;;5064206;28;20224;-41
2021/12/06 00:55:57;;;;;;;31.53;16.50;;;1.90;99.90;;;;;;5048742;28;20982;-41
2021/12/06 00:58:24;;;;;;;30.23;16.10;;;1.90;99.90;;;;;;5047825;28;20202;-41
2021/12/06 01:00:54;;;;;;;28.57;16.63;;;1.90;99.90;;;;;;5036259;28;20204;-41
2021/12/06 01:03:23;;;;;;;29.50;16.40;;;1.90;99.90;;;;;;5060255;28;20231;-41
2021/12/06 01:05:50;;;;;;;30.37;16.43;;;1.80;99.90;;;;;;5057988;28;20201;-41
2021/12/06 01:08:17;;;;;;;29.60;16.67;;;1.90;99.90;;;;;;5047431;28;20267;-41
2021/12/06 01:10:45;;;;;;;37.17;17.53;;;1.90;99.90;;;;;;5049674;28;20217;-41
2021/12/06 01:13:12;;;;;;;32.03;15.23;;;1.90;99.90;;;;;;5062169;28;20224;-41
2021/12/06 01:15:40;;;;;;;29.40;16.47;;;1.90;99.90;;;;;;5055995;28;20219;-41
2021/12/06 01:18:12;;;;;;;31.20;15.80;;;1.80;99.90;;;;;;5048068;28;20211;-40
2021/12/06 01:20:47;;;;;;;27.87;15.60;;;1.80;99.90;;;;;;5059532;28;20212;-41
2021/12/06 01:23:16;;;;;;;27.40;15.50;;;1.90;99.90;;;;;;5044887;28;20224;-41
2021/12/06 01:25:52;;;;;;;27.87;15.17;;;1.90;99.90;;;;;;5049133;28;20259;-41
2021/12/06 01:28:46;;;;;;;28.60;16.30;;;1.90;99.90;;;;;;5069368;28;20216;-40
2021/12/06 01:31:21;;;;;;;25.77;13.87;;;1.90;99.90;;;;;;5043149;28;20247;-41
2021/12/06 01:34:10;;;;;;;28.33;15.33;;;2.00;99.90;;;;;;5055112;28;20262;-41
2021/12/06 01:39:25;;;;;;;27.57;14.80;;;2.00;99.90;;;;;;5052017;28;20207;-41
2021/12/06 01:41:55;;;;;;;25.63;14.90;;;2.00;99.90;;;;;;5059822;28;20269;-41
2021/12/06 01:44:24;;;;;;;26.93;16.03;;;1.90;99.90;;;;;;5057972;28;20246;-41
2021/12/06 01:46:54;;;;;;;33.33;16.13;;;1.90;99.90;;;;;;5060010;28;20218;-40
2021/12/06 01:49:24;;;;;;;28.70;16.13;;;1.90;99.90;;;;;;5047830;28;20204;-41
2021/12/06 01:51:53;;;;;;;28.57;15.50;;;1.90;99.90;;;;;;5064477;28;20208;-41
2021/12/06 01:54:21;;;;;;;26.50;15.27;;;1.90;99.90;;;;;;5051553;28;22239;-40
2021/12/06 01:56:49;;;;;;;26.87;14.47;;;1.90;99.90;;;;;;5062016;28;20768;-41
2021/12/06 01:59:16;;;;;;;28.10;15.43;;;1.80;99.90;;;;;;5064729;28;20761;-41
2021/12/06 02:01:44;;;;;;;26.37;14.90;;;1.80;99.90;;;;;;5050996;28;20732;-40
2021/12/06 02:04:11;;;;;;;29.47;16.17;;;1.80;99.90;;;;;;5053343;28;20220;-40
2021/12/06 02:06:41;;;;;;;26.60;15.43;;;1.80;99.90;;;;;;5042702;28;20209;-41
2021/12/06 02:09:10;;;;;;;27.33;14.97;;;1.90;99.90;;;;;;5063174;28;20223;-40
2021/12/06 02:11:39;;;;;;;26.63;15.43;;;2.00;99.90;;;;;;5051343;28;20221;-41
2021/12/06 02:14:20;;;;;;;28.27;15.40;;;2.00;99.90;;;;;;5056355;28;20228;-41
2021/12/06 02:17:01;;;;;;;29.10;15.73;;;1.90;99.90;;;;;;5062610;28;20209;-41
2021/12/06 02:19:32;;;;;;;27.70;16.20;;;1.90;99.90;;;;;;5042019;28;20356;-40
2021/12/06 02:22:01;;;;;;;31.33;16.03;;;1.90;99.90;;;;;;5065628;28;20207;-41
2021/12/06 02:24:32;;;;;;;24.43;14.77;;;1.80;99.90;;;;;;5070390;28;20245;-41
2021/12/06 02:27:00;;;;;;;27.73;15.33;;;1.80;99.90;;;;;;5032339;28;20209;-41
2021/12/06 02:29:27;;;;;;;26.07;15.40;;;1.70;99.90;;;;;;5067116;28;20701;-40
2021/12/06 02:31:54;;;;;;;26.20;16.47;;;1.70;99.90;;;;;;5038224;28;20219;-41
2021/12/06 02:34:21;;;;;;;27.17;15.67;;;1.80;99.90;;;;;;5052219;28;20850;-41
2021/12/06 02:36:48;;;;;;;26.57;14.93;;;1.80;99.90;;;;;;5056504;28;20221;-41
2021/12/06 02:39:21;;;;;;;27.40;16.13;;;1.80;99.90;;;;;;5072015;28;20197;-41
2021/12/06 02:41:51;;;;;;;29.23;16.47;;;1.80;99.90;;;;;;5035221;28;20218;-41
2021/12/06 02:44:19;;;;;;;25.90;15.20;;;1.80;99.90;;;;;;5069662;28;20320;-41
2021/12/06 02:46:46;;;;;;;28.57;15.97;;;1.80;99.90;;;;;;5062198;28;20206;-41
2021/12/06 02:49:13;;;;;;;30.70;16.80;;;1.80;99.90;;;;;;5063741;28;20340;-40
2021/12/06 02:51:40;;;;;;;29.47;16.20;;;1.80;99.90;;;;;;5047850;28;20224;-40
2021/12/06 02:54:09;;;;;;;28.37;16.43;;;1.70;99.90;;;;;;5070228;28;20295;-40
2021/12/06 02:56:52;;;;;;;28.03;16.43;;;1.70;99.90;;;;;;5068502;28;20196;-41
2021/12/06 02:59:21;;;;;;;30.87;17.27;;;1.80;99.90;;;;;;5054816;28;20295;-40
2021/12/06 03:01:51;;;;;;;27.50;15.77;;;1.80;99.90;;;;;;5051295;28;20216;-41
2021/12/06 03:04:19;;;;;;;32.43;17.43;;;1.70;99.90;;;;;;5060378;28;20224;-41
2021/12/06 03:06:48;;;;;;;27.70;16.23;;;1.70;99.90;;;;;;5054668;28;20670;-41
2021/12/06 03:09:17;;;;;;;28.00;15.77;;;1.70;99.90;;;;;;5069394;28;20224;-41
2021/12/06 03:11:47;;;;;;;30.10;16.37;;;1.70;99.90;;;;;;5055097;28;20207;-41
2021/12/06 03:14:18;;;;;;;28.77;16.23;;;1.70;99.90;;;;;;5035968;28;20238;-41
2021/12/06 03:16:45;;;;;;;32.03;17.63;;;1.70;99.90;;;;;;5063890;28;20197;-41
2021/12/06 03:19:12;;;;;;;31.03;18.00;;;1.70;99.90;;;;;;5056401;28;21457;-41
2021/12/06 03:21:40;;;;;;;28.43;16.83;;;1.80;99.90;;;;;;5067029;28;20320;-41
2021/12/06 03:24:07;;;;;;;28.27;16.47;;;1.70;99.90;;;;;;5062455;28;20923;-41
2021/12/06 03:26:35;;;;;;;30.43;16.73;;;1.70;99.90;;;;;;5068642;28;20212;-40
2021/12/06 03:29:05;;;;;;;27.93;16.40;;;1.80;99.90;;;;;;5042528;28;20232;-41
2021/12/06 03:31:32;;;;;;;30.40;16.43;;;1.80;99.90;;;;;;5057237;28;20218;-41
2021/12/06 03:34:00;;;;;;;30.20;17.13;;;1.80;99.90;;;;;;5068246;28;20220;-41
2021/12/06 03:36:30;;;;;;;33.43;17.63;;;1.70;99.90;;;;;;5058727;28;20739;-41
2021/12/06 03:38:58;;;;;;;29.70;17.83;;;1.70;99.90;;;;;;5051542;28;20203;-41
2021/12/06 03:41:28;;;;;;;29.67;17.20;;;1.70;99.90;;;;;;5069591;28;20289;-40
2021/12/06 03:43:55;;;;;;;30.57;17.53;;;1.70;99.90;;;;;;5035203;28;20228;-41
2021/12/06 03:46:24;;;;;;;34.90;18.50;;;1.70;99.90;;;;;;5068507;28;20199;-41
2021/12/06 03:48:52;;;;;;;33.73;18.83;;;1.70;99.90;;;;;;5068429;28;20223;-41
2021/12/06 03:51:19;;;;;;;31.47;18.83;;;1.70;99.90;;;;;;5050587;28;20253;-41
2021/12/06 03:53:47;;;;;;;33.80;18.97;;;1.70;99.90;;;;;;5056610;28;20242;-40
2021/12/06 03:56:14;;;;;;;32.97;18.33;;;1.70;99.90;;;;;;5054009;28;20909;-40
2021/12/06 03:58:44;;;;;;;37.10;19.13;;;1.70;99.90;;;;;;5049083;28;20674;-41
2021/12/06 04:01:11;;;;;;;32.87;17.67;;;1.70;99.90;;;;;;5046290;28;20242;-41
2021/12/06 04:03:42;;;;;;;33.37;18.10;;;1.70;99.90;;;;;;5067452;28;20234;-41
2021/12/06 04:06:09;;;;;;;36.53;19.30;;;1.70;99.90;;;;;;5052273;28;20667;-40
2021/12/06 04:08:36;;;;;;;31.77;18.23;;;1.70;99.90;;;;;;5059564;28;20313;-41
2021/12/06 04:11:03;;;;;;;35.73;19.50;;;1.70;99.90;;;;;;5061349;28;20284;-41
2021/12/06 04:13:31;;;;;;;37.47;19.13;;;1.70;99.90;;;;;;5065629;28;20223;-41
2021/12/06 04:15:58;;;;;;;35.47;19.10;;;1.80;99.90;;;;;;5034747;28;20227;-40
2021/12/06 04:18:25;;;;;;;34.70;19.27;;;1.70;99.90;;;;;;5072779;28;20210;-41
2021/12/06 04:20:54;;;;;;;30.27;17.87;;;1.80;99.90;;;;;;5066824;28;20996;-41
2021/12/06 04:23:21;;;;;;;30.03;17.30;;;1.80;99.90;;;;;;5046414;28;20231;-41
2021/12/06 04:25:48;;;;;;;31.63;18.70;;;1.80;99.90;;;;;;5052522;28;20213;-41
2021/12/06 04:28:16;;;;;;;35.87;19.77;;;1.70;99.90;;;;;;5051870;28;20307;-41
2021/12/06 04:30:44;;;;;;;36.07;19.17;;;1.80;99.90;;;;;;5036107;28;20826;-41
2021/12/06 04:33:11;;;;;;;34.30;20.13;;;1.80;99.90;;;;;;5062607;28;20237;-41
2021/12/06 04:35:39;;;;;;;38.33;19.87;;;1.80;99.90;;;;;;5043639;28;20718;-41
2021/12/06 04:38:09;;;;;;;36.07;18.63;;;1.80;99.90;;;;;;5046058;28;20220;-41
2021/12/06 04:40:37;;;;;;;33.33;17.77;;;1.90;99.90;;;;;;5042258;28;20299;-41
2021/12/06 04:43:04;;;;;;;35.70;18.80;;;1.90;99.90;;;;;;5054198;28;20250;-41
2021/12/06 04:45:31;;;;;;;38.20;20.13;;;1.80;99.90;;;;;;5046311;28;20300;-41
2021/12/06 04:47:58;;;;;;;30.97;18.10;;;1.90;99.90;;;;;;5046716;28;21002;-40
2021/12/06 04:50:28;;;;;;;33.57;19.43;;;1.80;99.90;;;;;;5061169;28;20210;-41
2021/12/06 04:52:57;;;;;;;29.67;17.93;;;1.80;99.90;;;;;;5049031;28;20234;-41
2021/12/06 04:55:32;;;;;;;34.00;18.50;;;1.80;99.90;;;;;;5049045;28;20223;-41
2021/12/06 04:57:59;;;;;;;30.23;18.70;;;1.90;99.90;;;;;;5056828;28;20911;-41
2021/12/06 05:00:32;;;;;;;31.37;18.60;;;1.90;99.90;;;;;;5038006;28;20208;-41
2021/12/06 05:03:00;;;;;;;35.07;19.27;;;1.80;99.90;;;;;;5025460;28;20328;-41
2021/12/06 05:05:31;;;;;;;29.23;17.47;;;1.90;99.90;;;;;;5065938;28;20324;-40
2021/12/06 05:08:01;;;;;;;34.60;20.13;;;1.90;99.90;;;;;;5042068;28;20696;-41
2021/12/06 05:10:29;;;;;;;32.83;19.00;;;1.90;99.90;;;;;;5048656;28;20212;-41
2021/12/06 05:12:57;;;;;;;35.03;19.33;;;1.90;99.90;;;;;;5062296;28;20217;-40
2021/12/06 05:15:24;;;;;;;32.17;18.47;;;1.80;99.90;;;;;;5043305;28;20208;-41
2021/12/06 05:17:51;;;;;;;33.83;19.40;;;1.80;99.90;;;;;;5062224;28;20200;-41
2021/12/06 05:20:19;;;;;;;36.03;19.27;;;1.80;99.90;;;;;;5049676;28;20292;-41
2021/12/06 05:22:47;;;;;;;37.40;18.47;;;1.80;99.90;;;;;;5047555;28;20584;-40
2021/12/06 05:25:15;;;;;;;32.87;18.70;;;1.80;99.90;;;;;;5041446;28;20209;-41
2021/12/06 05:27:44;;;;;;;33.30;18.47;;;1.90;99.90;;;;;;5064940;28;20217;-41
2021/12/06 05:30:14;;;;;;;36.40;19.67;;;1.90;99.90;;;;;;5058557;28;21075;-41
2021/12/06 05:32:42;;;;;;;33.93;18.13;;;1.90;99.90;;;;;;5020863;28;20819;-41
2021/12/06 05:35:10;;;;;;;34.60;19.60;;;1.90;99.90;;;;;;5048934;28;20440;-40
2021/12/06 05:37:40;;;;;;;37.20;18.47;;;1.90;99.90;;;;;;5037756;28;20214;-41
2021/12/06 05:40:09;;;;;;;34.23;18.97;;;1.80;99.90;;;;;;5058145;28;26738;-41
2021/12/06 05:42:36;;;;;;;28.77;18.60;;;1.90;99.90;;;;;;5042011;28;20209;-41
2021/12/06 05:45:06;;;;;;;37.63;19.87;;;1.90;99.90;;;;;;5039886;28;20209;-41
2021/12/06 05:47:33;;;;;;;35.20;19.03;;;1.90;99.90;;;;;;5042377;28;20208;-41
2021/12/06 05:50:00;;;;;;;33.53;18.60;;;1.90;99.90;;;;;;5040394;28;21119;-41
2021/12/06 05:52:27;;;;;;;34.40;18.70;;;2.00;99.90;;;;;;5045366;28;20839;-41
2021/12/06 05:54:54;;;;;;;36.57;18.53;;;2.00;99.90;;;;;;5036191;28;20204;-41
2021/12/06 05:57:22;;;;;;;35.83;19.60;;;2.00;99.90;;;;;;5031724;28;20208;-41
2021/12/06 05:59:49;;;;;;;37.63;20.43;;;2.00;99.90;;;;;;5062339;28;20288;-41
2021/12/06 06:02:17;;;;;;;35.97;19.63;;;2.00;99.90;;;;;;5032911;28;20232;-41
2021/12/06 06:04:45;;;;;;;37.67;20.17;;;2.00;99.90;;;;;;5034053;28;21053;-41
2021/12/06 06:07:12;;;;;;;34.80;19.57;;;1.90;99.90;;;;;;5045996;28;20591;-41
2021/12/06 06:09:39;;;;;;;33.70;18.80;;;1.90;99.90;;;;;;5031830;28;20226;-41
2021/12/06 06:12:07;;;;;;;38.97;20.17;;;2.00;99.90;;;;;;5047595;28;20215;-41
2021/12/06 06:14:34;;;;;;;35.97;19.87;;;1.90;99.90;;;;;;5048750;28;20257;-41
2021/12/06 06:17:09;;;;;;;38.00;19.73;;;2.00;99.90;;;;;;5051202;28;20212;-46
2021/12/06 06:19:39;;;;;;;33.33;18.50;;;1.90;99.90;;;;;;5033562;28;20290;-41
2021/12/06 06:22:06;;;;;;;35.73;18.53;;;1.80;99.90;;;;;;5051217;28;20247;-41
2021/12/06 06:24:33;;;;;;;34.50;21.00;;;1.90;99.90;;;;;;5042842;28;20237;-41
2021/12/06 06:27:00;;;;;;;36.90;19.60;;;2.60;99.90;;;;;;5055602;28;20210;-41
2021/12/06 06:29:28;;;;;;;37.70;20.20;;;2.70;99.90;;;;;;5064172;28;20280;-41
2021/12/06 06:31:55;;;;;;;37.43;19.33;;;2.60;99.90;;;;;;5058415;28;20208;-41
2021/12/06 06:34:22;;;;;;;39.13;18.60;;;2.40;99.90;;;;;;5040597;28;20222;-41
2021/12/06 06:36:51;;;;;;;30.37;18.70;;;2.40;99.90;;;;;;5053314;28;20219;-41
2021/12/06 06:39:19;;;;;;;35.37;19.33;;;2.20;99.90;;;;;;5038133;28;20207;-40
2021/12/06 06:41:47;;;;;;;34.67;19.30;;;2.20;99.90;;;;;;5064782;28;20198;-41
2021/12/06 06:44:15;;;;;;;34.53;20.10;;;2.10;99.90;;;;;;5052217;28;20233;-41
2021/12/06 06:46:42;;;;;;;30.33;19.00;;;2.00;99.90;;;;;;5066427;28;20253;-40
2021/12/06 06:49:09;;;;;;;35.07;18.70;;;1.90;99.90;;;;;;5032136;28;20234;-41
2021/12/06 06:51:36;;;;;;;36.07;19.50;;;1.90;99.90;;;;;;5047086;28;20215;-41
2021/12/06 06:54:05;;;;;;;35.23;19.87;;;1.80;99.90;;;;;;5048856;28;20229;-40
2021/12/06 06:56:32;;;;;;;36.73;19.07;;;1.80;99.90;;;;;;5049834;28;20208;-41
2021/12/06 06:58:59;;;;;;;36.93;20.53;;;1.80;99.90;;;;;;5050998;28;20245;-41
2021/12/06 07:01:26;;;;;;;37.47;20.43;;;1.80;99.90;;;;;;5062726;28;20212;-41
2021/12/06 07:03:54;;;;;;;36.47;20.20;;;1.90;99.90;;;;;;5058243;28;20231;-41
2021/12/06 07:06:22;;;;;;;35.20;20.10;;;1.80;99.90;;;;;;5057991;28;20205;-41
2021/12/06 07:08:50;;;;;;;35.60;19.90;;;1.80;99.90;;;;;;5060932;28;20209;-41
2021/12/06 07:11:19;;;;;;;36.53;20.07;;;1.80;99.90;;;;;;5039842;28;20201;-40
2021/12/06 07:13:47;;;;;;;37.60;20.43;;;1.80;99.90;;;;;;5051755;28;20223;-41
2021/12/06 07:16:16;;;;;;;39.03;21.17;;;1.80;99.90;;;;;;5064042;28;20206;-40
2021/12/06 07:18:44;;;;;;;35.20;17.93;;;1.70;99.90;;;;;;5032869;28;20807;-42
2021/12/06 07:21:12;;;;;;;35.97;20.30;;;1.70;99.90;;;;;;5051687;28;20225;-41
2021/12/06 07:23:39;;;;;;;40.57;19.80;;;1.80;99.90;;;;;;5056442;28;20920;-42
2021/12/06 07:26:08;;;;;;;39.23;20.73;;;1.70;99.90;;;;;;5055440;28;20291;-41
2021/12/06 07:28:37;;;;;;;30.87;18.87;;;1.70;99.90;;;;;;5047255;28;20205;-41
2021/12/06 07:31:06;;;;;;;36.03;20.17;;;1.70;99.90;;;;;;5056930;28;20222;-41
2021/12/06 07:33:33;;;;;;;39.07;19.93;;;1.70;99.90;;;;;;5047710;28;20503;-41
2021/12/06 07:36:00;;;;;;;40.50;20.50;;;1.70;99.90;;;;;;5034261;28;20220;-41
2021/12/06 07:38:28;;;;;;;35.13;19.87;;;1.70;99.90;;;;;;5024483;28;20200;-41
2021/12/06 07:40:55;;;;;;;33.43;19.80;;;1.60;99.90;;;;;;5057891;28;20200;-40
2021/12/06 07:43:23;;;;;;;38.93;19.77;;;1.60;99.90;;;;;;5035432;28;21142;-45
2021/12/06 07:45:51;;;;;;;35.00;18.67;;;1.60;99.90;;;;;;5038256;28;20217;-46
2021/12/06 07:48:18;;;;;;;32.53;17.87;;;1.70;99.90;;;;;;5048814;28;20789;-45
2021/12/06 07:50:45;;;;;;;39.73;19.80;;;1.70;99.90;;;;;;5044150;28;20224;-45
2021/12/06 07:53:12;;;;;;;35.73;18.90;;;1.60;99.90;;;;;;5064446;28;21593;-46
2021/12/06 07:55:39;;;;;;;35.80;18.70;;;1.60;99.90;;;;;;5054925;28;20208;-45
2021/12/06 07:58:08;;;;;;;38.03;19.17;;;1.60;99.90;;;;;;5040727;28;20570;-46
2021/12/06 08:00:37;;;;;;;37.70;19.43;;;1.60;99.90;;;;;;5053020;28;20205;-46
2021/12/06 08:03:07;;;;;;;42.17;20.43;;;1.60;99.90;;;;;;5068179;28;20216;-45
2021/12/06 08:05:34;;;;;;;38.33;19.50;;;1.60;99.90;;;;;;5071253;28;20698;-45
2021/12/06 08:08:05;;;;;;;36.83;19.40;;;1.60;99.90;;;;;;5035890;28;20219;-45
2021/12/06 08:10:33;;;;;;;36.57;19.00;;;1.60;99.90;;;;;;5055195;28;20592;-45
2021/12/06 08:13:00;;;;;;;36.23;18.90;;;1.60;99.90;;;;;;5054420;28;20224;-45
2021/12/06 08:15:28;;;;;;;43.37;20.97;;;1.60;99.90;;;;;;5064404;28;20607;-45
2021/12/06 08:17:55;;;;;;;38.37;18.37;;;1.60;99.90;;;;;;5053047;28;20618;-45
2021/12/06 08:20:23;;;;;;;36.97;20.10;;;1.60;99.90;;;;;;5068684;28;20693;-45
2021/12/06 08:22:50;;;;;;;42.60;21.60;;;1.60;99.90;;;;;;5044801;28;20234;-45
2021/12/06 08:25:18;;;;;;;39.63;20.37;;;1.50;99.90;;;;;;5051907;28;20212;-45
2021/12/06 08:27:45;;;;;;;35.00;19.23;;;1.60;99.90;;;;;;5058651;28;20213;-45
2021/12/06 08:30:13;;;;;;;36.17;18.40;;;1.60;99.90;;;;;;5056455;28;20229;-45
2021/12/06 08:32:41;;;;;;;40.13;19.80;;;1.60;99.90;;;;;;5049772;28;20405;-45
2021/12/06 08:35:09;;;;;;;39.53;20.40;;;1.60;99.90;;;;;;5060810;28;20202;-45
2021/12/06 08:37:37;;;;;;;41.70;21.73;;;1.60;99.90;;;;;;5044563;28;20204;-46
2021/12/06 08:40:05;;;;;;;42.57;20.27;;;1.60;99.90;;;;;;5065109;28;20203;-46
2021/12/06 08:42:32;;;;;;;39.50;20.53;;;1.60;99.90;;;;;;5056943;28;20215;-46
2021/12/06 08:44:59;;;;;;;39.33;18.90;;;1.70;99.90;;;;;;5051616;28;20643;-45
2021/12/06 08:47:26;;;;;;;36.73;19.70;;;1.60;99.90;;;;;;5048444;28;20200;-45
2021/12/06 08:49:53;;;;;;;41.87;20.83;;;1.70;99.90;;;;;;5062148;28;20273;-45
2021/12/06 08:52:20;;;;;;;38.73;19.80;;;1.70;99.90;;;;;;5038704;28;20200;-45
2021/12/06 08:54:49;;;;;;;39.93;20.27;;;1.70;99.90;;;;;;5050423;28;20222;-45
2021/12/06 08:57:17;;;;;;;36.57;19.77;;;1.80;99.90;;;;;;5050436;28;20219;-45
2021/12/06 08:59:45;;;;;;;38.77;18.87;;;1.70;99.90;;;;;;5039214;28;20946;-45
2021/12/06 09:02:11;;;;;;;34.30;17.77;;;1.80;99.90;;;;;;5044526;28;20211;-45
2021/12/06 09:04:39;;;;;;;39.77;18.97;;;1.80;99.90;;;;;;5062923;28;20988;-45
2021/12/06 09:07:11;;;;;;;42.73;18.90;;;1.80;99.90;;;;;;5068250;28;20208;-46
2021/12/06 09:09:45;;;;;;;37.37;17.60;;;1.80;99.90;;;;;;5050789;28;20301;-45
2021/12/06 09:12:16;;;;;;;41.40;17.87;;;1.90;99.90;;;;;;5043274;28;20209;-46
2021/12/06 09:14:43;;;;;;;38.67;19.43;;;1.90;99.90;;;;;;5047744;28;20592;-45
2021/12/06 09:17:11;;;;;;;34.80;18.37;;;1.90;99.90;;;;;;5036979;28;20205;-45
2021/12/06 09:19:38;;;;;;;37.83;18.50;;;1.90;99.90;;;;;;5068788;28;20207;-45
2021/12/06 09:22:05;;;;;;;37.30;18.60;;;1.90;99.90;;;;;;5051250;28;20213;-46
2021/12/06 09:24:32;;;;;;;39.63;19.87;;;1.90;99.90;;;;;;5067230;28;20235;-45
2021/12/06 09:27:00;;;;;;;37.13;18.17;;;1.90;99.90;;;;;;5048617;28;20705;-45
2021/12/06 09:29:29;;;;;;;36.87;18.47;;;1.90;99.90;;;;;;5052016;28;20212;-45
2021/12/06 09:31:59;;;;;;;46.07;19.87;;;1.90;99.90;;;;;;5039554;28;20303;-45
2021/12/06 09:34:27;;;;;;;37.10;19.47;;;2.00;99.90;;;;;;5051718;28;20327;-45
2021/12/06 09:36:55;;;;;;;39.40;20.50;;;2.00;99.90;;;;;;5052676;28;20217;-46
2021/12/06 09:39:22;;;;;;;38.60;19.03;;;2.00;99.90;;;;;;5065817;28;20213;-45
2021/12/06 09:41:50;;;;;;;39.70;18.20;;;2.00;99.90;;;;;;5053270;28;20210;-45
2021/12/06 09:44:17;;;;;;;39.37;19.13;;;2.00;99.90;;;;;;5052882;28;20294;-45
2021/12/06 09:46:47;;;;;;;35.57;18.23;;;2.00;99.90;;;;;;5056120;28;20215;-45
2021/12/06 09:49:17;;;;;;;36.93;17.80;;;2.10;99.90;;;;;;5035517;28;20204;-45
2021/12/06 09:51:50;;;;;;;36.80;18.53;;;2.10;99.90;;;;;;5056549;28;20228;-45
2021/12/06 09:54:18;;;;;;;35.57;18.63;;;2.10;99.90;;;;;;5062522;28;20236;-45
2021/12/06 09:56:47;;;;;;;32.77;17.03;;;2.10;99.90;;;;;;5040948;28;20738;-45
2021/12/06 09:59:18;;;;;;;36.23;18.53;;;2.10;99.90;;;;;;5063308;28;20198;-46
2021/12/06 10:01:53;;;;;;;39.80;18.97;;;2.10;99.90;;;;;;5036903;28;20197;-45
2021/12/06 10:04:22;;;;;;;37.00;18.63;;;2.10;99.90;;;;;;5057189;28;20376;-45
2021/12/06 10:06:50;;;;;;;39.90;18.73;;;2.10;99.90;;;;;;5053557;28;20212;-45
2021/12/06 10:09:19;;;;;;;39.50;19.73;;;2.10;99.90;;;;;;5046815;28;20212;-46
2021/12/06 10:11:47;;;;;;;34.57;18.57;;;2.20;99.90;;;;;;5050622;28;20225;-45
2021/12/06 10:14:15;;;;;;;38.13;18.57;;;2.20;99.90;;;;;;5043577;28;20227;-45
2021/12/06 10:16:43;;;;;;;40.37;18.97;;;2.20;99.90;;;;;;5050136;28;20804;-45
2021/12/06 10:19:12;;;;;;;37.93;17.40;;;2.20;99.90;;;;;;5068189;28;20908;-45
2021/12/06 10:21:40;;;;;;;40.30;18.67;;;2.20;99.90;;;;;;5050222;28;20865;-46
2021/12/06 10:24:10;;;;;;;35.47;17.13;;;2.20;99.90;;;;;;5056164;28;20237;-45
2021/12/06 10:26:37;;;;;;;37.70;17.30;;;2.30;99.90;;;;;;5047322;28;20293;-46
2021/12/06 10:29:07;;;;;;;36.77;18.57;;;2.30;99.90;;;;;;5061555;28;20319;-45
2021/12/06 10:31:38;;;;;;;39.43;18.87;;;2.30;99.90;;;;;;5038020;28;20711;-45
2021/12/06 10:34:05;;;;;;;35.77;17.30;;;2.30;99.90;;;;;;5051715;28;20235;-48
2021/12/06 10:36:35;;;;;;;35.83;17.53;;;2.40;99.90;;;;;;5025466;28;20213;-45
2021/12/06 10:39:05;;;;;;;35.60;17.67;;;2.40;99.90;;;;;;5066953;28;20207;-45
2021/12/06 10:41:34;;;;;;;34.47;17.03;;;2.40;99.90;;;;;;5043364;28;21043;-45
2021/12/06 10:44:04;;;;;;;33.47;16.73;;;2.40;99.90;;;;;;5047031;28;20232;-45
2021/12/06 10:46:33;;;;;;;33.77;17.97;;;2.40;99.90;;;;;;5051105;28;22109;-45
2021/12/06 10:49:04;;;;;;;31.67;16.93;;;2.40;99.90;;;;;;5073806;28;20207;-45
2021/12/06 10:51:33;;;;;;;33.03;18.17;;;2.40;99.90;;;;;;5053417;28;20229;-45
2021/12/06 10:54:06;;;;;;;30.80;16.77;;;2.40;99.90;;;;;;5052979;28;20224;-40
2021/12/06 10:56:41;;;;;;;30.60;16.47;;;2.40;99.90;;;;;;5056587;28;20215;-40
2021/12/06 10:59:13;;;;;;;33.43;15.73;;;2.40;99.90;;;;;;5044168;28;20217;-40
2021/12/06 11:01:40;;;;;;;30.13;16.80;;;2.40;99.90;;;;;;5048378;28;20206;-40
2021/12/06 11:04:10;;;;;;;27.73;15.73;;;2.40;99.90;;;;;;5061400;28;20230;-40
2021/12/06 11:06:42;;;;;;;31.20;16.87;;;2.40;99.90;;;;;;5039432;28;21279;-40
2021/12/06 11:09:12;;;;;;;35.37;16.73;;;2.40;99.90;;;;;;5072398;27;20256;-40
2021/12/06 11:11:41;;;;;;;31.47;16.37;;;2.40;99.90;;;;;;5043150;28;20224;-40
2021/12/06 11:14:10;;;;;;;32.67;16.20;;;2.40;99.90;;;;;;5043983;28;20631;-40
2021/12/06 11:16:39;;;;;;;32.77;17.97;;;2.40;99.90;;;;;;5049320;28;20210;-40
2021/12/06 11:19:08;;;;;;;33.43;18.60;;;2.40;99.90;;;;;;5056599;28;20581;-40
2021/12/06 11:21:39;;;;;;;37.43;18.33;;;2.40;99.90;;;;;;5039934;28;20236;-40
2021/12/06 11:24:22;;;;;;;40.67;25.30;;;2.40;99.90;;;;;;5064531;28;20221;-40
2021/12/06 11:26:53;;;;;;;39.10;20.80;;;2.50;99.90;;;;;;5057145;28;20214;-40
2021/12/06 11:29:24;;;;;;;36.77;21.60;;;2.40;99.90;;;;;;5017584;28;20224;-39
2021/12/06 11:32:04;;;;;;;39.47;21.17;;;2.40;99.90;;;;;;5057181;28;20220;-40
2021/12/06 11:34:36;;;;;;;37.13;19.50;;;2.40;99.90;;;;;;5051871;28;20221;-40
2021/12/06 11:37:12;;;;;;;34.83;20.23;;;2.40;99.90;;;;;;5043245;28;20227;-40
2021/12/06 11:39:39;;;;;;;33.80;19.50;;;2.40;99.90;;;;;;5067888;28;20220;-39
2021/12/06 11:42:06;;;;;;;32.10;18.20;;;2.40;99.90;;;;;;5055340;28;20209;-40
2021/12/06 11:44:38;;;;;;;36.10;21.30;;;2.40;99.90;;;;;;5040487;28;20229;-39
2021/12/06 11:47:09;;;;;;;37.97;18.93;;;2.40;99.90;;;;;;5063386;28;20789;-40
2021/12/06 11:49:40;;;;;;;32.53;17.20;;;2.40;99.90;;;;;;5057072;28;20221;-46
2021/12/06 11:52:12;;;;;;;30.00;16.17;;;2.40;99.90;;;;;;5043620;28;20220;-40
2021/12/06 11:54:44;;;;;;;31.67;15.87;;;2.40;99.90;;;;;;5070084;28;20730;-40
2021/12/06 11:57:23;;;;;;;29.67;15.47;;;2.40;99.90;;;;;;5052334;28;20210;-40
2021/12/06 12:00:00;;;;;;;34.37;16.60;;;2.50;99.90;;;;;;5047678;28;20211;-40
2021/12/06 12:02:38;;;;;;;32.27;16.53;;;2.40;99.90;;;;;;5052968;28;20887;-40
2021/12/06 12:05:18;;;;;;;28.30;15.20;;;2.50;99.90;;;;;;5038461;28;20206;-41
2021/12/06 12:08:00;;;;;;;28.13;15.73;;;2.50;99.90;;;;;;5049499;28;20218;-40
2021/12/06 12:10:33;;;;;;;27.87;15.40;;;2.50;99.90;;;;;;5062707;28;21258;-40
2021/12/06 12:13:01;;;;;;;30.67;16.67;;;2.60;99.90;;;;;;5045123;28;20250;-40
2021/12/06 12:15:28;;;;;;;30.17;16.10;;;2.50;99.90;;;;;;5036392;28;20216;-40
2021/12/06 12:17:55;;;;;;;28.10;15.93;;;2.50;99.90;;;;;;5061018;28;20643;-40
2021/12/06 12:20:24;;;;;;;29.63;15.70;;;2.50;99.90;;;;;;5050207;28;20205;-40
2021/12/06 12:22:51;;;;;;;32.13;15.23;;;2.50;99.90;;;;;;5060543;28;20997;-40
2021/12/06 12:25:28;;;;;;;26.30;15.23;;;2.50;99.90;;;;;;5050528;28;20862;-40
2021/12/06 12:28:02;;;;;;;27.40;15.60;;;2.50;99.90;;;;;;5056760;28;20210;-40
2021/12/06 12:30:32;;;;;;;32.67;14.90;;;2.50;99.90;;;;;;5033253;28;20719;-39
2021/12/06 12:33:01;;;;;;;28.43;15.07;;;2.50;99.90;;;;;;5049518;28;20607;-40
2021/12/06 12:35:30;;;;;;;25.20;14.37;;;2.50;99.90;;;;;;5030024;28;20215;-40
2021/12/06 12:37:58;;;;;;;28.07;14.30;;;2.50;99.90;;;;;;5042405;28;20248;-46
2021/12/06 12:40:29;;;;;;;26.30;15.60;;;2.50;99.90;;;;;;5054431;28;20654;-46
2021/12/06 12:42:58;;;;;;;27.43;16.27;;;2.50;99.90;;;;;;5059909;28;20223;-46
2021/12/06 12:45:32;;;;;;;27.60;15.33;;;2.60;99.90;;;;;;5051341;28;20222;-46
2021/12/06 12:47:59;;;;;;;26.80;15.07;;;2.50;99.90;;;;;;5036694;28;20405;-46